Terminal Aerodrome Forecast
Issued by NWS

Home | Current Version | Previous Version | Text Only | Print | Product List | Glossary On
Versions: 1 2 3 4 5 6 7 8 9 10 11 12 13 14 15 16 17 18 19 20 21
000
FTUS43 KDLH 191144
TAFBRD
TAF
KBRD 191144Z 1912/2012 14005KT 4SM BR OVC003
     FM191400 14012KT P6SM BKN008
     FM191700 15010G17KT P6SM BKN015
     FM200400 14013KT P6SM VCSH OVC025 WS020/15045KT
     FM200800 18008KT 3SM BR VCSH OVC010 WS020/16050KT=

USA.gov is the U.S. government's official web portal to all federal, state and local government web resources and services.